createdAt,value
2018-09-26T00:01:31.610Z,4.17
2018-09-26T00:04:04.563Z,4.47
2018-09-26T00:06:33.420Z,3.83
2018-09-26T00:09:02.184Z,4.30
2018-09-26T00:11:31.067Z,4.10
2018-09-26T00:13:59.708Z,4.60
2018-09-26T00:16:28.401Z,4.40
2018-09-26T00:18:57.176Z,5.30
2018-09-26T00:21:25.978Z,4.90
2018-09-26T00:23:54.747Z,4.93
2018-09-26T00:26:23.640Z,4.67
2018-09-26T00:28:52.341Z,3.80
2018-09-26T00:31:21.041Z,4.37
2018-09-26T00:33:49.817Z,3.90
2018-09-26T00:36:18.688Z,4.67
2018-09-26T00:38:47.561Z,4.80
2018-09-26T00:41:16.381Z,4.07
2018-09-26T00:43:45.132Z,4.83
2018-09-26T00:46:13.903Z,4.50
2018-09-26T00:48:42.718Z,4.20
2018-09-26T00:51:11.553Z,4.97
2018-09-26T00:53:40.427Z,4.67
2018-09-26T00:56:09.026Z,5.00
2018-09-26T00:58:37.859Z,5.03
2018-09-26T01:01:06.548Z,5.00
2018-09-26T01:03:35.516Z,5.10
2018-09-26T01:06:04.405Z,5.40
2018-09-26T01:08:33.399Z,4.00
2018-09-26T01:11:02.196Z,4.03
2018-09-26T01:13:30.894Z,4.50
2018-09-26T01:15:59.797Z,4.70
2018-09-26T01:18:28.500Z,4.00
2018-09-26T01:20:57.234Z,4.47
2018-09-26T01:23:25.871Z,4.67
2018-09-26T01:25:54.585Z,4.77
2018-09-26T01:28:23.498Z,4.73
2018-09-26T01:30:52.216Z,4.47
2018-09-26T01:33:21.067Z,3.73
2018-09-26T01:35:49.826Z,4.57
2018-09-26T01:38:18.621Z,5.20
2018-09-26T01:40:47.495Z,3.93
2018-09-26T01:43:16.404Z,5.50
2018-09-26T01:45:45.208Z,4.33
2018-09-26T01:48:15.749Z,4.47
2018-09-26T01:50:44.916Z,4.93
2018-09-26T01:53:13.891Z,4.50
2018-09-26T01:55:42.562Z,4.83
2018-09-26T01:58:11.423Z,4.80
2018-09-26T02:00:40.396Z,4.40
2018-09-26T02:03:09.251Z,4.20
2018-09-26T02:05:38.075Z,4.20
2018-09-26T02:08:06.742Z,4.50
2018-09-26T02:10:35.637Z,4.37
2018-09-26T02:13:04.377Z,4.50
2018-09-26T02:15:33.377Z,4.70
2018-09-26T02:18:02.062Z,4.90
2018-09-26T02:20:30.777Z,4.60
2018-09-26T02:22:59.533Z,5.10
2018-09-26T02:25:28.282Z,4.00
2018-09-26T02:27:57.061Z,4.50
2018-09-26T02:30:25.904Z,4.23
2018-09-26T02:32:54.755Z,5.10
2018-09-26T02:35:23.867Z,5.20
2018-09-26T02:37:52.662Z,4.80
2018-09-26T02:40:21.602Z,4.23
2018-09-26T02:42:50.403Z,4.60
2018-09-26T02:45:19.108Z,4.30
2018-09-26T02:47:48.202Z,3.60
2018-09-26T02:50:17.138Z,4.00
2018-09-26T02:52:45.841Z,4.20
2018-09-26T02:55:14.921Z,3.80
2018-09-26T02:57:43.983Z,3.50
2018-09-26T03:00:12.978Z,3.63
2018-09-26T03:02:41.753Z,3.50
2018-09-26T03:05:10.509Z,4.10
2018-09-26T03:07:39.595Z,3.93
2018-09-26T03:10:08.317Z,3.60
2018-09-26T03:12:37.122Z,3.83
2018-09-26T03:15:06.215Z,3.80
2018-09-26T03:17:35.015Z,3.30
2018-09-26T03:20:04.123Z,3.93
2018-09-26T03:22:32.793Z,3.80
2018-09-26T03:25:01.509Z,3.70
2018-09-26T03:27:30.309Z,4.33
2018-09-26T03:29:59.079Z,3.63
2018-09-26T03:32:27.914Z,3.87
2018-09-26T03:34:56.748Z,5.00
2018-09-26T03:37:25.544Z,3.57
2018-09-26T03:39:54.498Z,4.67
2018-09-26T03:42:23.372Z,3.60
2018-09-26T03:44:52.338Z,4.00
2018-09-26T03:47:21.241Z,3.97
2018-09-26T03:49:50.178Z,3.63
2018-09-26T03:52:18.954Z,3.40
2018-09-26T03:54:48.048Z,3.50
2018-09-26T03:57:16.763Z,4.10
2018-09-26T03:59:45.724Z,4.30
2018-09-26T04:02:14.454Z,4.13
2018-09-26T04:04:43.468Z,4.10
2018-09-26T04:07:12.221Z,4.87
2018-09-26T04:09:40.959Z,4.23
2018-09-26T04:12:09.909Z,4.07
2018-09-26T04:14:38.568Z,5.27
2018-09-26T04:17:07.408Z,4.17
2018-09-26T04:19:36.119Z,4.67
2018-09-26T04:22:05.094Z,4.00
2018-09-26T04:24:33.888Z,4.30
2018-09-26T04:27:02.808Z,4.40
2018-09-26T04:29:32.818Z,5.47
2018-09-26T04:32:01.604Z,3.90
2018-09-26T04:34:30.492Z,3.80
2018-09-26T04:36:59.431Z,3.50
2018-09-26T04:39:28.218Z,3.53
2018-09-26T04:41:57.115Z,4.57
2018-09-26T04:44:25.963Z,4.03
2018-09-26T04:46:54.661Z,4.43
2018-09-26T04:49:23.559Z,4.43
2018-09-26T04:51:52.414Z,3.90
2018-09-26T04:54:21.229Z,3.73
2018-09-26T04:56:50.011Z,3.50
2018-09-26T04:59:18.757Z,3.57
2018-09-26T05:01:47.433Z,4.47
2018-09-26T05:04:16.489Z,4.50
2018-09-26T05:06:45.245Z,3.20
2018-09-26T05:09:14.000Z,3.60
2018-09-26T05:11:42.857Z,3.30
2018-09-26T05:14:13.934Z,3.57
2018-09-26T05:16:44.035Z,3.43
2018-09-26T05:19:13.956Z,4.00
2018-09-26T05:21:44.501Z,3.63
2018-09-26T05:24:14.142Z,4.10
2018-09-26T05:26:44.291Z,3.33
2018-09-26T05:29:13.535Z,4.57
2018-09-26T05:31:42.405Z,3.47
2018-09-26T05:34:11.150Z,3.00
2018-09-26T05:36:39.989Z,5.30
2018-09-26T05:39:11.060Z,3.47
2018-09-26T05:41:40.216Z,5.83
2018-09-26T05:44:09.834Z,3.57
2018-09-26T05:46:38.556Z,3.80
2018-09-26T05:49:07.040Z,3.13
2018-09-26T05:51:36.076Z,2.97
2018-09-26T05:54:04.971Z,3.20
2018-09-26T05:56:33.687Z,3.53
2018-09-26T05:59:02.335Z,3.80
2018-09-26T06:01:31.176Z,3.33
2018-09-26T06:03:59.998Z,3.77
2018-09-26T06:06:28.709Z,3.00
2018-09-26T06:08:57.761Z,3.10
2018-09-26T06:11:26.660Z,3.23
2018-09-26T06:13:55.817Z,3.03
2018-09-26T06:16:24.451Z,3.53
2018-09-26T06:18:53.317Z,3.23
2018-09-26T06:21:23.212Z,3.60
2018-09-26T06:23:51.974Z,4.40
2018-09-26T06:26:21.628Z,3.10
2018-09-26T06:28:50.277Z,3.17
2018-09-26T06:31:19.418Z,3.50
2018-09-26T06:33:48.334Z,3.30
2018-09-26T06:36:17.182Z,4.03
2018-09-26T06:38:47.005Z,3.00
2018-09-26T06:41:15.780Z,3.50
2018-09-26T06:43:44.779Z,3.27
2018-09-26T06:46:14.023Z,3.70
2018-09-26T06:48:42.876Z,3.07
2018-09-26T06:51:12.204Z,3.63
2018-09-26T06:53:41.659Z,2.77
2018-09-26T06:56:10.331Z,2.80
2018-09-26T06:58:39.867Z,3.17
2018-09-26T07:01:09.497Z,3.27
2018-09-26T07:03:38.913Z,3.03
2018-09-26T07:06:07.885Z,3.07
2018-09-26T07:08:37.028Z,3.43
2018-09-26T07:11:05.747Z,2.93
2018-09-26T07:13:34.910Z,3.27
2018-09-26T07:16:03.763Z,3.20
2018-09-26T07:18:32.829Z,3.20
2018-09-26T07:21:01.945Z,3.30
2018-09-26T07:23:30.746Z,3.20
2018-09-26T07:25:59.242Z,2.80
2018-09-26T07:28:27.920Z,2.60
2018-09-26T07:30:56.392Z,3.40
2018-09-26T07:33:24.935Z,3.53
2018-09-26T07:35:53.431Z,3.70
2018-09-26T07:38:22.071Z,3.70
2018-09-26T07:40:50.726Z,3.00
2018-09-26T07:43:19.221Z,3.00
2018-09-26T07:45:47.774Z,2.97
2018-09-26T07:48:16.347Z,3.27
2018-09-26T07:50:44.796Z,2.80
2018-09-26T07:53:13.314Z,3.67
2018-09-26T07:55:41.851Z,3.17
2018-09-26T07:58:10.290Z,3.33
2018-09-26T08:00:38.769Z,3.27
2018-09-26T08:03:07.889Z,2.40
2018-09-26T08:05:36.547Z,3.10
2018-09-26T08:08:05.132Z,3.13
2018-09-26T08:10:33.864Z,3.30
2018-09-26T08:13:02.476Z,3.63
2018-09-26T08:15:31.419Z,2.90
2018-09-26T08:17:59.986Z,3.10
2018-09-26T08:20:28.519Z,2.63
2018-09-26T08:22:56.988Z,2.77
2018-09-26T08:25:25.906Z,3.03
2018-09-26T08:27:54.775Z,2.77
2018-09-26T08:30:23.413Z,2.50
2018-09-26T08:32:52.052Z,3.10
2018-09-26T08:37:59.960Z,2.83
2018-09-26T08:40:28.619Z,3.17
2018-09-26T08:42:57.350Z,2.77
2018-09-26T08:45:26.220Z,2.10
2018-09-26T08:47:54.774Z,2.40
2018-09-26T08:50:23.277Z,2.50
2018-09-26T08:52:52.256Z,1.87
2018-09-26T08:55:20.955Z,2.10
2018-09-26T08:57:49.888Z,2.33
2018-09-26T09:00:23.928Z,2.37
2018-09-26T09:02:53.479Z,2.20
2018-09-26T09:05:21.994Z,1.97
2018-09-26T09:07:50.655Z,2.37
2018-09-26T09:10:19.353Z,2.20
2018-09-26T09:12:48.301Z,2.10
2018-09-26T09:15:17.093Z,2.00
2018-09-26T09:17:45.910Z,2.33
2018-09-26T09:20:14.520Z,2.50
2018-09-26T09:22:43.400Z,2.50
2018-09-26T09:25:12.195Z,2.63
2018-09-26T09:27:41.156Z,2.57
2018-09-26T09:30:09.766Z,2.30
2018-09-26T09:32:38.274Z,2.90
2018-09-26T09:35:07.297Z,2.57
2018-09-26T09:37:35.782Z,2.83
2018-09-26T09:40:05.567Z,2.73
2018-09-26T09:42:34.321Z,2.93
2018-09-26T09:45:03.157Z,2.77
2018-09-26T09:47:31.594Z,3.20
2018-09-26T09:50:00.122Z,3.30
2018-09-26T09:52:28.601Z,3.10
2018-09-26T09:54:57.340Z,2.90
2018-09-26T09:57:26.169Z,2.90
2018-09-26T09:59:54.905Z,3.13
2018-09-26T10:02:24.077Z,3.00
2018-09-26T10:04:52.777Z,2.97
2018-09-26T10:07:21.578Z,2.70
2018-09-26T10:09:50.178Z,3.30
2018-09-26T10:12:18.720Z,2.80
2018-09-26T10:14:47.334Z,2.83
2018-09-26T10:17:16.034Z,3.30
2018-09-26T10:19:44.588Z,3.07
2018-09-26T10:22:13.620Z,3.50
2018-09-26T10:24:42.150Z,3.30
2018-09-26T10:27:10.630Z,3.20
2018-09-26T10:29:39.102Z,2.70
2018-09-26T10:32:07.612Z,3.67
2018-09-26T10:34:36.007Z,3.13
2018-09-26T10:37:04.387Z,3.60
2018-09-26T10:39:32.930Z,3.13
2018-09-26T10:42:01.448Z,3.63
2018-09-26T10:44:30.077Z,3.07
2018-09-26T10:46:58.633Z,3.23
2018-09-26T10:49:27.745Z,3.00
2018-09-26T10:51:56.396Z,3.40
2018-09-26T10:54:24.914Z,2.23
2018-09-26T10:56:53.489Z,3.30
2018-09-26T10:59:21.965Z,2.70
2018-09-26T11:01:50.634Z,3.67
2018-09-26T11:04:19.538Z,3.10
2018-09-26T11:06:49.017Z,2.90
2018-09-26T11:09:17.824Z,3.90
2018-09-26T11:11:46.379Z,3.03
2018-09-26T11:14:14.999Z,3.60
2018-09-26T11:16:43.989Z,2.87
2018-09-26T11:19:12.749Z,2.83
2018-09-26T11:21:41.625Z,3.47
2018-09-26T11:24:10.413Z,2.77
2018-09-26T11:26:39.375Z,2.90
2018-09-26T11:29:08.543Z,3.37
2018-09-26T11:31:37.338Z,3.53
2018-09-26T11:34:06.364Z,3.10
2018-09-26T11:36:35.449Z,3.03
2018-09-26T11:39:05.245Z,3.23
2018-09-26T11:41:33.969Z,2.83
2018-09-26T11:44:02.674Z,2.80
2018-09-26T11:46:31.178Z,3.50
2018-09-26T11:48:59.769Z,3.10
2018-09-26T11:51:28.458Z,2.20
2018-09-26T11:53:57.276Z,3.47
2018-09-26T11:56:25.943Z,3.20
2018-09-26T11:58:54.844Z,4.27
2018-09-26T12:01:23.884Z,3.70
2018-09-26T12:03:52.653Z,3.93
2018-09-26T12:06:21.419Z,4.10
2018-09-26T12:08:51.964Z,3.97
2018-09-26T12:11:20.920Z,3.13
2018-09-26T12:13:49.408Z,3.60
2018-09-26T12:16:18.331Z,3.00
2018-09-26T12:18:46.894Z,3.90
2018-09-26T12:21:15.582Z,2.90
2018-09-26T12:23:44.092Z,3.70
2018-09-26T12:26:13.941Z,2.93
2018-09-26T12:28:42.440Z,2.67
2018-09-26T12:31:10.941Z,2.33
2018-09-26T12:33:39.421Z,1.53
2018-09-26T12:36:08.076Z,2.03
2018-09-26T12:38:37.070Z,2.60
2018-09-26T12:41:05.618Z,2.20
2018-09-26T12:43:35.539Z,2.33
2018-09-26T12:46:04.150Z,2.13
2018-09-26T12:48:32.902Z,2.10
2018-09-26T12:51:01.448Z,1.77
2018-09-26T12:53:30.067Z,1.87
2018-09-26T12:55:59.020Z,2.20
2018-09-26T12:58:27.714Z,2.10
2018-09-26T13:00:56.192Z,1.77
2018-09-26T13:03:24.645Z,1.90
2018-09-26T13:05:53.585Z,1.70
2018-09-26T13:08:22.130Z,1.80
2018-09-26T13:10:50.605Z,2.07
2018-09-26T13:13:19.138Z,1.50
2018-09-26T13:15:47.605Z,2.60
2018-09-26T13:18:16.303Z,2.00
2018-09-26T13:20:45.113Z,1.87
2018-09-26T13:23:13.611Z,2.13
2018-09-26T13:25:42.164Z,1.83
2018-09-26T13:28:10.917Z,1.93
2018-09-26T13:30:39.828Z,2.00
2018-09-26T13:33:08.502Z,2.50
2018-09-26T13:35:36.979Z,1.90
2018-09-26T13:38:05.798Z,1.97
2018-09-26T13:40:35.811Z,2.03
2018-09-26T13:43:04.670Z,1.90
2018-09-26T13:45:33.252Z,2.20
2018-09-26T13:48:02.320Z,2.03
2018-09-26T13:50:31.191Z,2.40
2018-09-26T13:52:59.764Z,2.23
2018-09-26T13:55:28.364Z,2.00
2018-09-26T13:57:57.321Z,2.13
2018-09-26T14:00:25.999Z,2.33
2018-09-26T14:02:54.732Z,2.87
2018-09-26T14:05:23.364Z,2.20
2018-09-26T14:07:51.998Z,2.43
2018-09-26T14:10:20.653Z,3.13
2018-09-26T14:12:49.330Z,2.53
2018-09-26T14:15:17.895Z,2.80
2018-09-26T14:17:46.496Z,3.07
2018-09-26T14:20:31.892Z,3.00
2018-09-26T14:23:00.723Z,3.37
2018-09-26T14:25:29.390Z,3.40
2018-09-26T14:27:58.342Z,3.13
2018-09-26T14:30:27.061Z,3.33
2018-09-26T14:32:55.950Z,3.17
2018-09-26T14:35:25.106Z,3.40
2018-09-26T14:37:53.605Z,3.20
2018-09-26T14:40:22.555Z,3.07
2018-09-26T14:42:51.582Z,3.03
2018-09-26T14:45:20.328Z,3.57
2018-09-26T14:47:49.017Z,3.07
2018-09-26T14:50:17.634Z,3.50
2018-09-26T14:52:46.477Z,3.57
2018-09-26T14:55:15.097Z,3.30
2018-09-26T14:57:43.619Z,2.90
2018-09-26T15:00:12.265Z,2.97
2018-09-26T15:02:41.222Z,2.80
2018-09-26T15:05:09.852Z,2.70
2018-09-26T15:07:38.445Z,3.43
2018-09-26T15:10:07.990Z,2.77
2018-09-26T15:12:36.572Z,2.43
2018-09-26T15:15:05.195Z,2.60
2018-09-26T15:17:34.166Z,2.60
2018-09-26T15:20:03.069Z,3.03
2018-09-26T15:22:31.755Z,2.50
2018-09-26T15:25:00.598Z,2.60
2018-09-26T15:27:29.233Z,2.00
2018-09-26T15:29:57.903Z,2.63
2018-09-26T15:32:26.779Z,2.30
2018-09-26T15:34:55.613Z,2.70
2018-09-26T15:37:24.494Z,2.43
2018-09-26T15:39:53.179Z,2.23
2018-09-26T15:42:22.244Z,2.00
2018-09-26T15:44:50.961Z,2.40
2018-09-26T15:47:20.149Z,2.53
2018-09-26T15:49:48.944Z,2.10
2018-09-26T15:52:17.564Z,3.10
2018-09-26T15:54:46.084Z,2.70
2018-09-26T15:57:14.913Z,2.60
2018-09-26T15:59:43.566Z,3.23
2018-09-26T16:02:12.305Z,2.43
2018-09-26T16:04:41.869Z,2.63
2018-09-26T16:07:10.733Z,2.40
2018-09-26T16:09:39.549Z,2.40
2018-09-26T16:12:08.321Z,2.03
2018-09-26T16:14:36.999Z,2.17
2018-09-26T16:17:05.616Z,1.83
2018-09-26T16:19:34.477Z,1.80
2018-09-26T16:22:03.004Z,2.10
2018-09-26T16:24:31.606Z,1.97
2018-09-26T16:27:00.105Z,1.90
2018-09-26T16:29:29.930Z,2.10
2018-09-26T16:31:58.714Z,2.17
2018-09-26T16:34:28.278Z,2.57
2018-09-26T16:36:57.108Z,1.90
2018-09-26T16:39:25.870Z,1.90
2018-09-26T16:41:54.487Z,2.27
2018-09-26T16:44:23.409Z,1.60
2018-09-26T16:46:52.082Z,1.93
2018-09-26T16:49:20.905Z,1.93
2018-09-26T16:51:49.445Z,1.87
2018-09-26T16:54:18.171Z,2.17
2018-09-26T16:56:47.021Z,2.10
2018-09-26T16:59:15.795Z,1.97
2018-09-26T17:01:44.651Z,1.60
2018-09-26T17:04:13.288Z,2.13
2018-09-26T17:06:42.281Z,2.13
2018-09-26T17:09:11.076Z,1.83
2018-09-26T17:11:39.692Z,2.20
2018-09-26T17:14:08.594Z,1.80
2018-09-26T17:16:37.204Z,2.57
2018-09-26T17:19:06.297Z,2.27
2018-09-26T17:21:34.892Z,2.10
2018-09-26T17:24:03.660Z,1.97
2018-09-26T17:26:32.792Z,1.80
2018-09-26T17:29:01.721Z,1.77
2018-09-26T17:31:31.449Z,2.53
2018-09-26T17:34:00.931Z,1.97
2018-09-26T17:36:31.415Z,2.03
2018-09-26T17:39:01.686Z,1.70
2018-09-26T17:41:31.200Z,1.90
2018-09-26T17:43:59.988Z,1.77
2018-09-26T17:46:28.761Z,2.30
2018-09-26T17:48:57.659Z,1.77
2018-09-26T17:51:26.466Z,1.87
2018-09-26T17:53:55.229Z,1.90
2018-09-26T17:56:24.109Z,1.90
2018-09-26T17:58:52.860Z,1.80
2018-09-26T18:01:21.739Z,2.30
2018-09-26T18:03:50.433Z,1.97
2018-09-26T18:06:19.250Z,2.60
2018-09-26T18:08:47.888Z,2.10
2018-09-26T18:11:16.528Z,2.40
2018-09-26T18:13:45.073Z,2.40
2018-09-26T18:16:13.661Z,2.70
2018-09-26T18:18:42.360Z,2.50
2018-09-26T18:21:11.061Z,2.83
2018-09-26T18:23:39.816Z,2.40
2018-09-26T18:26:08.490Z,2.27
2018-09-26T18:28:37.186Z,2.90
2018-09-26T18:31:05.912Z,2.20
2018-09-26T18:33:34.623Z,3.13
2018-09-26T18:36:03.372Z,2.90
2018-09-26T18:38:31.966Z,2.87
2018-09-26T18:41:00.624Z,3.93
2018-09-26T18:43:29.260Z,2.60
2018-09-26T18:45:57.842Z,2.73
2018-09-26T18:48:26.503Z,2.70
2018-09-26T18:50:55.112Z,2.70
2018-09-26T18:53:23.698Z,3.30
2018-09-26T18:55:52.206Z,3.63
2018-09-26T18:58:20.736Z,2.83
2018-09-26T19:00:49.395Z,3.53
2018-09-26T19:03:17.989Z,3.83
2018-09-26T19:05:46.740Z,3.27
2018-09-26T19:08:15.353Z,3.13
2018-09-26T19:10:43.956Z,3.27
2018-09-26T19:13:12.727Z,2.30
2018-09-26T19:15:41.699Z,3.30
2018-09-26T19:18:10.319Z,2.27
2018-09-26T19:20:39.071Z,2.50
2018-09-26T19:23:07.504Z,3.83
2018-09-26T19:25:36.024Z,4.00
2018-09-26T19:28:04.666Z,3.30
2018-09-26T19:30:33.196Z,2.83
2018-09-26T19:33:01.797Z,3.20
2018-09-26T19:35:30.289Z,2.43
2018-09-26T19:37:58.740Z,3.27
2018-09-26T19:40:27.295Z,2.90
2018-09-26T19:42:55.856Z,3.10
2018-09-26T19:45:24.510Z,2.83
2018-09-26T19:47:53.037Z,3.50
2018-09-26T19:50:21.544Z,3.43
2018-09-26T19:52:50.111Z,3.43
2018-09-26T19:55:18.596Z,3.50
2018-09-26T19:57:47.089Z,3.87
2018-09-26T20:00:15.557Z,4.53
2018-09-26T20:02:44.020Z,3.50
2018-09-26T20:05:12.568Z,4.20
2018-09-26T20:07:41.008Z,4.63
2018-09-26T20:10:10.520Z,3.83
2018-09-26T20:12:38.976Z,3.83
2018-09-26T20:15:07.728Z,3.63
2018-09-26T20:17:36.255Z,3.63
2018-09-26T20:20:04.868Z,3.30
2018-09-26T20:22:33.296Z,4.10
2018-09-26T20:25:01.895Z,3.43
2018-09-26T20:27:30.386Z,4.20
2018-09-26T20:29:58.952Z,4.23
2018-09-26T20:32:27.481Z,4.80
2018-09-26T20:34:56.069Z,3.33
2018-09-26T20:37:24.549Z,4.20
2018-09-26T20:39:53.123Z,3.97
2018-09-26T20:42:21.706Z,3.93
2018-09-26T20:44:50.284Z,3.97
2018-09-26T20:47:18.869Z,4.53
2018-09-26T20:49:47.430Z,4.47
2018-09-26T20:52:15.878Z,5.57
2018-09-26T20:54:44.415Z,5.10
2018-09-26T20:57:12.921Z,4.90
2018-09-26T20:59:41.532Z,5.27
2018-09-26T21:02:10.083Z,4.60
2018-09-26T21:04:38.717Z,4.77
2018-09-26T21:07:07.313Z,4.80
2018-09-26T21:09:35.897Z,5.53
2018-09-26T21:12:04.405Z,4.50
2018-09-26T21:14:32.992Z,5.23
2018-09-26T21:17:01.495Z,4.70
2018-09-26T21:19:30.075Z,4.87
2018-09-26T21:21:58.606Z,5.13
2018-09-26T21:24:27.173Z,5.57
2018-09-26T21:26:55.717Z,5.50
2018-09-26T21:29:24.273Z,5.93
2018-09-26T21:31:52.748Z,5.60
2018-09-26T21:34:21.263Z,6.37
2018-09-26T21:36:49.876Z,6.20
2018-09-26T21:39:18.475Z,7.13
2018-09-26T21:41:47.032Z,6.20
2018-09-26T21:44:15.537Z,4.83
2018-09-26T21:46:44.079Z,5.40
2018-09-26T21:49:12.762Z,4.80
2018-09-26T21:51:41.258Z,5.30
2018-09-26T21:54:09.846Z,5.00
2018-09-26T21:56:38.309Z,5.20
2018-09-26T21:59:07.135Z,4.57
2018-09-26T22:01:35.596Z,6.07
2018-09-26T22:04:04.169Z,5.73
2018-09-26T22:06:32.696Z,5.80
2018-09-26T22:09:01.202Z,5.17
2018-09-26T22:11:29.858Z,6.27
2018-09-26T22:13:58.420Z,5.30
2018-09-26T22:16:26.959Z,5.83
2018-09-26T22:18:55.555Z,6.17
2018-09-26T22:21:24.097Z,5.30
2018-09-26T22:23:52.484Z,5.67
2018-09-26T22:26:21.909Z,5.97
2018-09-26T22:28:50.483Z,5.50
2018-09-26T22:31:19.144Z,6.40
2018-09-26T22:33:47.588Z,5.37
2018-09-26T22:36:16.243Z,6.60
2018-09-26T22:38:44.885Z,5.67
2018-09-26T22:41:13.491Z,6.33
2018-09-26T22:43:42.093Z,6.20
2018-09-26T22:46:10.766Z,6.20
2018-09-26T22:48:39.207Z,6.83
2018-09-26T22:51:07.708Z,6.07
2018-09-26T22:53:36.265Z,6.63
2018-09-26T22:56:04.927Z,6.20
2018-09-26T22:58:33.544Z,5.67
2018-09-26T23:01:02.176Z,6.97
2018-09-26T23:03:30.752Z,6.00
2018-09-26T23:05:59.368Z,6.03
2018-09-26T23:08:27.947Z,6.17
2018-09-26T23:10:56.504Z,6.40
2018-09-26T23:13:25.034Z,7.47
2018-09-26T23:15:53.599Z,6.40
2018-09-26T23:18:22.184Z,5.93
2018-09-26T23:20:50.726Z,7.10
2018-09-26T23:23:19.476Z,6.13
2018-09-26T23:25:48.051Z,6.07
2018-09-26T23:28:16.652Z,6.40
2018-09-26T23:30:45.402Z,7.50
2018-09-26T23:33:13.976Z,7.20
2018-09-26T23:35:42.392Z,6.40
2018-09-26T23:38:10.966Z,6.80
2018-09-26T23:40:39.552Z,6.23
2018-09-26T23:43:08.034Z,6.40
2018-09-26T23:45:36.612Z,6.70
2018-09-26T23:48:05.329Z,6.70
2018-09-26T23:50:33.988Z,5.70
2018-09-26T23:53:02.786Z,5.73
2018-09-26T23:55:31.382Z,6.50
2018-09-26T23:58:00.036Z,5.93
